createdAt,value
2019-03-06T00:00:19.341Z,100
2019-03-06T00:01:21.512Z,100
2019-03-06T00:02:23.638Z,100
2019-03-06T00:03:26.057Z,100
2019-03-06T00:04:28.201Z,100
2019-03-06T00:05:30.709Z,100
2019-03-06T00:06:33.356Z,100
2019-03-06T00:07:36.286Z,100
2019-03-06T00:08:38.405Z,100
2019-03-06T00:09:40.531Z,100
2019-03-06T00:10:43.069Z,100
2019-03-06T00:11:45.186Z,100
2019-03-06T00:12:47.723Z,100
2019-03-06T00:13:49.854Z,100
2019-03-06T00:14:51.994Z,100
2019-03-06T00:15:54.118Z,100
2019-03-06T00:16:56.260Z,100
2019-03-06T00:17:58.967Z,100
2019-03-06T00:19:01.199Z,100
2019-03-06T00:20:04.091Z,100
2019-03-06T00:21:06.946Z,100
2019-03-06T00:22:09.493Z,100
2019-03-06T00:23:11.626Z,100
2019-03-06T00:24:13.760Z,100
2019-03-06T00:25:16.192Z,100
2019-03-06T00:26:18.654Z,100
2019-03-06T00:27:20.779Z,100
2019-03-06T00:28:22.909Z,100
2019-03-06T00:29:25.060Z,100
2019-03-06T00:30:27.211Z,100
2019-03-06T00:31:29.350Z,100
2019-03-06T00:32:32.139Z,100
2019-03-06T00:33:34.743Z,100
2019-03-06T00:34:36.854Z,100
2019-03-06T00:35:38.989Z,100
2019-03-06T00:36:41.133Z,100
2019-03-06T00:37:43.269Z,100
2019-03-06T00:38:45.386Z,100
2019-03-06T00:39:47.526Z,100
2019-03-06T00:40:49.668Z,100
2019-03-06T00:41:52.078Z,100
2019-03-06T00:42:54.243Z,100
2019-03-06T00:43:56.376Z,100
2019-03-06T00:44:58.779Z,100
2019-03-06T00:46:01.515Z,100
2019-03-06T00:47:04.373Z,100
2019-03-06T00:48:06.517Z,100
2019-03-06T00:49:08.641Z,100
2019-03-06T00:50:10.783Z,100
2019-03-06T00:51:12.903Z,100
2019-03-06T00:52:15.036Z,100
2019-03-06T00:53:17.172Z,100
2019-03-06T00:54:19.275Z,100
2019-03-06T00:55:21.411Z,100
2019-03-06T00:56:23.538Z,100
2019-03-06T00:57:25.688Z,100
2019-03-06T00:58:28.236Z,100
2019-03-06T00:59:30.865Z,100
2019-03-06T01:00:32.981Z,100
2019-03-06T01:01:35.160Z,100
2019-03-06T01:02:37.310Z,100
2019-03-06T01:03:39.430Z,100
2019-03-06T01:04:41.551Z,100
2019-03-06T01:05:43.732Z,100
2019-03-06T01:06:45.870Z,100
2019-03-06T01:07:47.998Z,100
2019-03-06T01:08:50.129Z,100
2019-03-06T01:09:52.262Z,100
2019-03-06T01:10:54.397Z,100
2019-03-06T01:11:57.079Z,100
2019-03-06T01:12:59.969Z,100
2019-03-06T01:14:02.106Z,100
2019-03-06T01:15:04.544Z,100
2019-03-06T01:16:06.974Z,100
2019-03-06T01:17:09.097Z,100
2019-03-06T01:18:11.233Z,100
2019-03-06T01:19:13.627Z,100
2019-03-06T01:20:16.112Z,100
2019-03-06T01:21:18.537Z,100
2019-03-06T01:22:20.670Z,100
2019-03-06T01:23:22.849Z,100
2019-03-06T01:24:25.316Z,100
2019-03-06T01:25:27.545Z,100
2019-03-06T01:26:30.796Z,100
2019-03-06T01:27:32.938Z,100
2019-03-06T01:28:35.054Z,100
2019-03-06T01:29:37.201Z,100
2019-03-06T01:30:39.321Z,100
2019-03-06T01:31:41.469Z,100
2019-03-06T01:32:43.586Z,100
2019-03-06T01:33:45.771Z,100
2019-03-06T01:34:47.903Z,100
2019-03-06T01:35:50.017Z,100
2019-03-06T01:36:52.180Z,100
2019-03-06T01:37:54.687Z,100
2019-03-06T01:38:57.363Z,100
2019-03-06T01:39:59.500Z,100
2019-03-06T01:41:01.648Z,100
2019-03-06T01:42:03.772Z,100
2019-03-06T01:43:05.903Z,100
2019-03-06T01:44:08.041Z,100
2019-03-06T01:45:10.862Z,100
2019-03-06T01:46:13.003Z,100
2019-03-06T01:47:15.150Z,100
2019-03-06T01:48:17.263Z,100
2019-03-06T01:49:19.383Z,100
2019-03-06T01:50:21.796Z,100
2019-03-06T01:51:24.318Z,100
2019-03-06T01:52:27.115Z,100
2019-03-06T01:53:29.273Z,100
2019-03-06T01:54:32.177Z,100
2019-03-06T01:55:34.319Z,100
2019-03-06T01:56:36.433Z,100
2019-03-06T01:57:38.578Z,100
2019-03-06T01:58:41.000Z,100
2019-03-06T01:59:43.433Z,100
2019-03-06T02:00:45.582Z,100
2019-03-06T02:01:47.708Z,100
2019-03-06T02:02:49.835Z,100
2019-03-06T02:03:52.265Z,100
2019-03-06T02:04:54.412Z,100
2019-03-06T02:05:57.584Z,100
2019-03-06T02:06:59.734Z,100
2019-03-06T02:08:01.870Z,100
2019-03-06T02:09:03.988Z,100
2019-03-06T02:10:06.134Z,100
2019-03-06T02:11:08.553Z,100
2019-03-06T02:12:11.048Z,100
2019-03-06T02:13:13.165Z,100
2019-03-06T02:14:15.301Z,100
2019-03-06T02:15:17.438Z,100
2019-03-06T02:16:19.586Z,100
2019-03-06T02:17:22.185Z,100
2019-03-06T02:18:24.889Z,100
2019-03-06T02:19:27.021Z,100
2019-03-06T02:20:29.180Z,100
2019-03-06T02:21:31.290Z,100
2019-03-06T02:22:33.449Z,100
2019-03-06T02:23:35.586Z,100
2019-03-06T02:24:37.730Z,100
2019-03-06T02:25:39.882Z,100
2019-03-06T02:26:42.047Z,100
2019-03-06T02:27:44.586Z,100
2019-03-06T02:28:46.713Z,100
2019-03-06T02:29:49.507Z,100
2019-03-06T02:30:51.671Z,100
2019-03-06T02:31:54.537Z,100
2019-03-06T02:32:57.074Z,100
2019-03-06T02:33:59.830Z,100
2019-03-06T02:35:02.006Z,100
2019-03-06T02:36:04.775Z,100
2019-03-06T02:37:07.629Z,100
2019-03-06T02:38:09.793Z,100
2019-03-06T02:39:12.206Z,100
2019-03-06T02:40:14.974Z,100
2019-03-06T02:41:17.425Z,100
2019-03-06T02:42:20.442Z,100
2019-03-06T02:43:23.169Z,100
2019-03-06T02:44:26.528Z,100
2019-03-06T02:45:28.650Z,100
2019-03-06T02:46:30.798Z,100
2019-03-06T02:47:33.232Z,100
2019-03-06T02:48:35.644Z,100
2019-03-06T02:49:38.175Z,100
2019-03-06T02:50:40.306Z,100
2019-03-06T02:51:42.509Z,100
2019-03-06T02:52:44.926Z,100
2019-03-06T02:53:47.468Z,100
2019-03-06T02:54:49.598Z,100
2019-03-06T02:55:52.494Z,100
2019-03-06T02:56:55.133Z,100
2019-03-06T02:57:57.306Z,100
2019-03-06T02:58:59.790Z,100
2019-03-06T03:00:01.979Z,100
2019-03-06T03:01:04.727Z,100
2019-03-06T03:02:07.149Z,100
2019-03-06T03:03:09.672Z,100
2019-03-06T03:04:12.099Z,100
2019-03-06T03:05:14.830Z,100
2019-03-06T03:06:17.376Z,100
2019-03-06T03:07:19.834Z,100
2019-03-06T03:08:22.542Z,100
2019-03-06T03:09:25.126Z,100
2019-03-06T03:10:27.866Z,100
2019-03-06T03:11:30.708Z,100
2019-03-06T03:12:33.638Z,100
2019-03-06T03:13:36.066Z,100
2019-03-06T03:14:38.236Z,100
2019-03-06T03:15:40.402Z,100
2019-03-06T03:16:42.910Z,100
2019-03-06T03:17:45.046Z,100
2019-03-06T03:18:47.776Z,100
2019-03-06T03:19:49.932Z,100
2019-03-06T03:20:52.398Z,100
2019-03-06T03:21:54.877Z,100
2019-03-06T03:22:57.041Z,100
2019-03-06T03:24:00.541Z,100
2019-03-06T03:25:03.260Z,100
2019-03-06T03:26:05.406Z,100
2019-03-06T03:27:07.876Z,100
2019-03-06T03:28:10.433Z,100
2019-03-06T03:29:12.615Z,100
2019-03-06T03:30:15.424Z,100
2019-03-06T03:31:17.927Z,100
2019-03-06T03:32:20.409Z,100
2019-03-06T03:33:23.000Z,100
2019-03-06T03:34:26.505Z,100
2019-03-06T03:35:29.512Z,100
2019-03-06T03:36:32.179Z,100
2019-03-06T03:37:34.714Z,100
2019-03-06T03:38:37.617Z,100
2019-03-06T03:39:39.783Z,100
2019-03-06T03:40:42.594Z,100
2019-03-06T03:41:44.782Z,100
2019-03-06T03:42:47.226Z,100
2019-03-06T03:43:50.113Z,100
2019-03-06T03:44:52.248Z,100
2019-03-06T03:45:54.424Z,100
2019-03-06T03:46:56.552Z,100
2019-03-06T03:47:59.006Z,100
2019-03-06T03:49:01.417Z,100
2019-03-06T03:50:04.252Z,100
2019-03-06T03:51:07.062Z,100
2019-03-06T03:52:09.271Z,100
2019-03-06T03:53:11.431Z,100
2019-03-06T03:54:13.846Z,100
2019-03-06T03:55:16.026Z,100
2019-03-06T03:56:18.176Z,100
2019-03-06T03:57:20.609Z,100
2019-03-06T03:58:22.755Z,100
2019-03-06T03:59:25.670Z,100
2019-03-06T04:00:28.807Z,100
2019-03-06T04:01:31.427Z,100
2019-03-06T04:02:34.665Z,100
2019-03-06T04:03:36.820Z,100
2019-03-06T04:04:38.979Z,100
2019-03-06T04:05:41.829Z,100
2019-03-06T04:06:44.582Z,100
2019-03-06T04:07:46.728Z,100
2019-03-06T04:08:49.196Z,100
2019-03-06T04:09:51.325Z,100
2019-03-06T04:10:53.472Z,100
2019-03-06T04:11:55.623Z,100
2019-03-06T04:12:58.075Z,100
2019-03-06T04:14:00.671Z,100
2019-03-06T04:15:04.047Z,100
2019-03-06T04:16:06.474Z,100
2019-03-06T04:17:08.607Z,100
2019-03-06T04:18:11.173Z,100
2019-03-06T04:19:13.921Z,100
2019-03-06T04:20:16.160Z,100
2019-03-06T04:21:18.955Z,100
2019-03-06T04:22:21.078Z,100
2019-03-06T04:23:24.218Z,100
2019-03-06T04:24:26.982Z,100
2019-03-06T04:25:29.423Z,100
2019-03-06T04:26:32.725Z,100
2019-03-06T04:27:35.356Z,100
2019-03-06T04:28:38.530Z,100
2019-03-06T04:29:40.661Z,100
2019-03-06T04:30:42.818Z,100
2019-03-06T04:31:45.366Z,100
2019-03-06T04:32:47.513Z,100
2019-03-06T04:33:49.660Z,100
2019-03-06T04:34:51.813Z,100
2019-03-06T04:35:53.952Z,100
2019-03-06T04:36:56.085Z,100
2019-03-06T04:37:58.243Z,100
2019-03-06T04:39:00.345Z,100
2019-03-06T04:40:03.354Z,100
2019-03-06T04:41:06.175Z,100
2019-03-06T04:42:08.929Z,100
2019-03-06T04:43:11.428Z,100
2019-03-06T04:44:13.566Z,100
2019-03-06T04:45:15.992Z,100
2019-03-06T04:46:18.125Z,100
2019-03-06T04:47:20.282Z,100
2019-03-06T04:48:22.405Z,100
2019-03-06T04:49:24.528Z,100
2019-03-06T04:50:27.034Z,100
2019-03-06T04:51:29.185Z,100
2019-03-06T04:52:31.719Z,100
2019-03-06T04:53:34.106Z,100
2019-03-06T04:54:37.190Z,100
2019-03-06T04:55:39.297Z,100
2019-03-06T04:56:41.437Z,100
2019-03-06T04:57:43.860Z,100
2019-03-06T04:58:45.982Z,100
2019-03-06T04:59:48.122Z,100
2019-03-06T05:00:50.259Z,100
2019-03-06T05:01:52.381Z,100
2019-03-06T05:02:54.506Z,100
2019-03-06T05:03:56.627Z,100
2019-03-06T05:04:58.763Z,100
2019-03-06T05:06:01.313Z,100
2019-03-06T05:07:04.221Z,100
2019-03-06T05:08:06.695Z,100
2019-03-06T05:09:09.224Z,100
2019-03-06T05:10:11.352Z,100
2019-03-06T05:11:13.542Z,100
2019-03-06T05:12:15.651Z,100
2019-03-06T05:13:17.770Z,100
2019-03-06T05:14:19.889Z,100
2019-03-06T05:15:22.022Z,100
2019-03-06T05:16:24.131Z,100
2019-03-06T05:17:26.267Z,100
2019-03-06T05:18:28.790Z,100
2019-03-06T05:19:31.628Z,100
2019-03-06T05:20:33.770Z,100
2019-03-06T05:21:35.883Z,100
2019-03-06T05:22:38.023Z,100
2019-03-06T05:23:40.163Z,100
2019-03-06T05:24:42.308Z,100
2019-03-06T05:25:44.423Z,100
2019-03-06T05:26:46.843Z,100
2019-03-06T05:27:48.992Z,100
2019-03-06T05:28:51.444Z,100
2019-03-06T05:29:53.578Z,100
2019-03-06T05:30:56.095Z,100
2019-03-06T05:31:58.731Z,100
2019-03-06T05:33:00.851Z,100
2019-03-06T05:34:02.991Z,100
2019-03-06T05:35:05.114Z,100
2019-03-06T05:36:07.265Z,100
2019-03-06T05:37:10.074Z,100
2019-03-06T05:38:12.190Z,100
2019-03-06T05:39:14.333Z,100
2019-03-06T05:40:16.460Z,100
2019-03-06T05:41:18.996Z,100
2019-03-06T05:42:21.130Z,100
2019-03-06T05:43:23.252Z,100
2019-03-06T05:44:25.901Z,100
2019-03-06T05:45:28.582Z,100
2019-03-06T05:46:30.711Z,100
2019-03-06T05:47:32.840Z,100
2019-03-06T05:48:35.250Z,100
2019-03-06T05:49:37.637Z,100
2019-03-06T05:50:39.784Z,100
2019-03-06T05:51:41.919Z,100
2019-03-06T05:52:44.436Z,100
2019-03-06T05:53:46.579Z,100
2019-03-06T05:54:48.692Z,100
2019-03-06T05:55:51.207Z,100
2019-03-06T05:56:53.369Z,100
2019-03-06T05:57:56.455Z,100
2019-03-06T05:58:59.355Z,100
2019-03-06T06:00:01.518Z,100
2019-03-06T06:01:03.653Z,100
2019-03-06T06:02:05.764Z,100
2019-03-06T06:03:08.227Z,100
2019-03-06T06:04:10.360Z,100
2019-03-06T06:05:12.521Z,100
2019-03-06T06:06:14.646Z,100
2019-03-06T06:07:16.791Z,100
2019-03-06T06:08:18.913Z,100
2019-03-06T06:09:21.061Z,100
2019-03-06T06:10:23.704Z,100
2019-03-06T06:11:26.158Z,100
2019-03-06T06:12:29.126Z,100
2019-03-06T06:13:32.427Z,100
2019-03-06T06:14:34.536Z,100
2019-03-06T06:15:36.664Z,100
2019-03-06T06:16:38.787Z,100
2019-03-06T06:17:41.174Z,100
2019-03-06T06:18:43.312Z,100
2019-03-06T06:19:45.727Z,100
2019-03-06T06:20:47.855Z,100
2019-03-06T06:21:49.980Z,100
2019-03-06T06:22:52.142Z,100
2019-03-06T06:23:54.686Z,100
2019-03-06T06:24:57.380Z,100
2019-03-06T06:26:00.097Z,100
2019-03-06T06:27:02.616Z,100
2019-03-06T06:28:04.764Z,100
2019-03-06T06:29:06.898Z,100
2019-03-06T06:30:09.067Z,100
2019-03-06T06:31:11.179Z,100
2019-03-06T06:32:13.319Z,100
2019-03-06T06:33:15.469Z,100
2019-03-06T06:34:17.593Z,100
2019-03-06T06:35:20.014Z,100
2019-03-06T06:36:22.401Z,100
2019-03-06T06:37:24.704Z,100
2019-03-06T06:38:27.539Z,100
2019-03-06T06:39:30.163Z,100
2019-03-06T06:40:32.279Z,100
2019-03-06T06:41:34.449Z,100
2019-03-06T06:42:37.007Z,100
2019-03-06T06:43:39.140Z,100
2019-03-06T06:44:41.279Z,100
2019-03-06T06:45:43.426Z,100
2019-03-06T06:46:45.572Z,100
2019-03-06T06:47:47.716Z,100
2019-03-06T06:48:50.229Z,100
2019-03-06T06:49:52.843Z,100
2019-03-06T06:51:03.584Z,100
2019-03-06T06:52:06.240Z,100
2019-03-06T06:53:09.008Z,100
2019-03-06T06:54:11.416Z,100
2019-03-06T06:55:13.570Z,100
2019-03-06T06:56:15.747Z,100
2019-03-06T06:57:18.553Z,100
2019-03-06T06:58:20.709Z,100
2019-03-06T06:59:22.844Z,100
2019-03-06T07:00:24.954Z,100
2019-03-06T07:01:27.093Z,100
2019-03-06T07:02:29.221Z,100
2019-03-06T07:03:31.743Z,100
2019-03-06T07:04:34.150Z,100
2019-03-06T07:05:36.719Z,100
2019-03-06T07:06:38.886Z,100
2019-03-06T07:07:41.652Z,100
2019-03-06T07:08:44.194Z,100
2019-03-06T07:09:46.315Z,100
2019-03-06T07:10:48.457Z,100
2019-03-06T07:11:50.889Z,100
2019-03-06T07:12:53.010Z,100
2019-03-06T07:13:55.410Z,100
2019-03-06T07:14:57.547Z,100
2019-03-06T07:15:59.671Z,100
2019-03-06T07:17:01.793Z,100
2019-03-06T07:18:03.930Z,100
2019-03-06T07:19:06.506Z,100
2019-03-06T07:20:08.665Z,100
2019-03-06T07:21:11.423Z,100
2019-03-06T07:22:13.855Z,100
2019-03-06T07:23:15.977Z,100
2019-03-06T07:24:18.441Z,100
2019-03-06T07:25:20.629Z,100
2019-03-06T07:26:22.766Z,100
2019-03-06T07:27:24.896Z,100
2019-03-06T07:28:27.034Z,100
2019-03-06T07:29:29.198Z,100
2019-03-06T07:30:31.366Z,100
2019-03-06T07:31:33.769Z,100
2019-03-06T07:32:36.260Z,100
2019-03-06T07:33:38.399Z,100
2019-03-06T07:34:41.469Z,100
2019-03-06T07:35:44.205Z,100
2019-03-06T07:36:46.646Z,100
2019-03-06T07:37:48.785Z,100
2019-03-06T07:38:51.481Z,100
2019-03-06T07:39:53.616Z,100
2019-03-06T07:40:55.748Z,100
2019-03-06T07:41:58.172Z,100
2019-03-06T07:43:00.318Z,100
2019-03-06T07:44:02.733Z,100
2019-03-06T07:45:04.869Z,100
2019-03-06T07:46:07.008Z,100
2019-03-06T07:47:09.480Z,100
2019-03-06T07:48:11.898Z,100
2019-03-06T07:49:14.256Z,100
2019-03-06T07:50:16.382Z,100
2019-03-06T07:51:18.512Z,100
2019-03-06T07:52:20.633Z,100
2019-03-06T07:53:22.770Z,100
2019-03-06T07:54:24.899Z,100
2019-03-06T07:55:27.058Z,100
2019-03-06T07:56:29.202Z,100
2019-03-06T07:57:31.319Z,100
2019-03-06T07:58:33.472Z,100
2019-03-06T07:59:35.594Z,100
2019-03-06T08:00:38.118Z,100
2019-03-06T08:01:40.620Z,100
2019-03-06T08:02:42.769Z,100
2019-03-06T08:03:44.897Z,100
2019-03-06T08:04:47.023Z,100
2019-03-06T08:05:49.457Z,100
2019-03-06T08:06:51.575Z,100
2019-03-06T08:07:53.732Z,100
2019-03-06T08:08:55.858Z,100
2019-03-06T08:09:58.043Z,100
2019-03-06T08:11:00.485Z,100
2019-03-06T08:12:02.658Z,100
2019-03-06T08:13:04.793Z,100
2019-03-06T08:14:07.394Z,100
2019-03-06T08:15:10.098Z,100
2019-03-06T08:16:12.486Z,100
2019-03-06T08:17:14.623Z,100
2019-03-06T08:18:17.170Z,100
2019-03-06T08:19:19.301Z,100
2019-03-06T08:20:21.448Z,100
2019-03-06T08:21:23.858Z,100
2019-03-06T08:22:26.399Z,100
2019-03-06T08:23:28.537Z,100
2019-03-06T08:24:31.686Z,100
2019-03-06T08:25:33.825Z,100
2019-03-06T08:26:35.961Z,100
2019-03-06T08:27:38.127Z,100
2019-03-06T08:28:41.402Z,100
2019-03-06T08:29:44.072Z,100
2019-03-06T08:30:46.495Z,100
2019-03-06T08:31:48.654Z,100
2019-03-06T08:32:50.800Z,100
2019-03-06T08:33:52.926Z,100
2019-03-06T08:34:55.056Z,100
2019-03-06T08:35:57.203Z,100
2019-03-06T08:36:59.369Z,100
2019-03-06T08:38:01.783Z,100
2019-03-06T08:39:04.321Z,100
2019-03-06T08:40:06.724Z,100
2019-03-06T08:41:09.185Z,100
2019-03-06T08:42:11.314Z,100
2019-03-06T08:43:14.123Z,100
2019-03-06T08:44:16.241Z,100
2019-03-06T08:45:18.388Z,100
2019-03-06T08:46:20.548Z,100
2019-03-06T08:47:22.960Z,100
2019-03-06T08:48:25.784Z,100
2019-03-06T08:49:27.903Z,100
2019-03-06T08:50:30.038Z,100
2019-03-06T08:51:32.218Z,100
2019-03-06T08:52:34.645Z,100
2019-03-06T08:53:36.775Z,100
2019-03-06T08:54:39.332Z,100
2019-03-06T08:55:41.872Z,100
2019-03-06T08:56:44.211Z,100
2019-03-06T08:57:47.323Z,100
2019-03-06T08:58:49.948Z,100
2019-03-06T08:59:52.122Z,100
2019-03-06T09:00:54.274Z,100
2019-03-06T09:02:02.002Z,100
2019-03-06T09:03:04.540Z,100
2019-03-06T09:04:06.673Z,100
2019-03-06T09:05:09.073Z,100
2019-03-06T09:06:11.227Z,100
2019-03-06T09:07:13.682Z,100
2019-03-06T09:08:15.833Z,100
2019-03-06T09:09:18.319Z,100
2019-03-06T09:10:21.818Z,100
2019-03-06T09:11:24.718Z,100
2019-03-06T09:12:26.853Z,100
2019-03-06T09:13:29.017Z,100
2019-03-06T09:14:31.140Z,100
2019-03-06T09:15:33.279Z,100
2019-03-06T09:16:35.406Z,100
2019-03-06T09:17:37.557Z,100
2019-03-06T09:18:39.671Z,100
2019-03-06T09:19:41.802Z,100
2019-03-06T09:20:43.947Z,100
2019-03-06T09:21:46.067Z,100
2019-03-06T09:22:48.219Z,100
2019-03-06T09:23:51.590Z,100
2019-03-06T09:24:54.642Z,100
2019-03-06T09:25:56.792Z,100
2019-03-06T09:27:00.559Z,100
2019-03-06T09:28:02.692Z,100
2019-03-06T09:29:05.105Z,100
2019-03-06T09:30:16.819Z,100
2019-03-06T09:31:18.962Z,100
2019-03-06T09:32:21.100Z,100
2019-03-06T09:33:23.219Z,100
2019-03-06T09:34:25.414Z,100
2019-03-06T09:35:27.576Z,100
2019-03-06T09:36:29.986Z,99
2019-03-06T09:37:32.138Z,99
2019-03-06T09:38:34.548Z,99
2019-03-06T09:39:37.242Z,99
2019-03-06T09:40:39.896Z,99
2019-03-06T09:41:42.332Z,99
2019-03-06T09:42:44.496Z,99
2019-03-06T09:43:46.644Z,98
2019-03-06T09:44:49.181Z,98
2019-03-06T09:45:51.688Z,98
2019-03-06T09:46:53.852Z,99
2019-03-06T09:47:55.986Z,99
2019-03-06T09:48:58.113Z,98
2019-03-06T09:50:00.335Z,97
2019-03-06T09:51:02.495Z,97
2019-03-06T09:52:05.072Z,98
2019-03-06T09:53:07.759Z,97
2019-03-06T09:54:10.660Z,97
2019-03-06T09:55:12.775Z,97
2019-03-06T09:56:15.308Z,97
2019-03-06T09:57:18.006Z,97
2019-03-06T09:58:20.127Z,96
2019-03-06T09:59:22.261Z,96
2019-03-06T10:00:24.715Z,96
2019-03-06T10:01:26.839Z,95
2019-03-06T10:02:28.979Z,96
2019-03-06T10:03:31.109Z,95
2019-03-06T10:04:33.237Z,95
2019-03-06T10:05:35.779Z,96
2019-03-06T10:06:38.431Z,95
2019-03-06T10:07:40.938Z,95
2019-03-06T10:08:43.063Z,95
2019-03-06T10:09:45.185Z,95
2019-03-06T10:10:59.424Z,96
2019-03-06T10:12:01.834Z,95
2019-03-06T10:13:04.499Z,95
2019-03-06T10:14:06.647Z,95
2019-03-06T10:15:08.818Z,95
2019-03-06T10:16:10.935Z,94
2019-03-06T10:17:13.095Z,94
2019-03-06T10:18:15.548Z,93
2019-03-06T10:19:17.692Z,93
2019-03-06T10:20:26.916Z,93
2019-03-06T10:21:29.057Z,93
2019-03-06T10:22:31.745Z,93
2019-03-06T10:23:34.725Z,93
2019-03-06T10:24:36.921Z,94
2019-03-06T10:25:39.120Z,93
2019-03-06T10:26:41.319Z,93
2019-03-06T10:27:43.521Z,93
2019-03-06T10:28:46.184Z,94
2019-03-06T10:29:49.498Z,94
2019-03-06T10:30:51.677Z,94
2019-03-06T10:32:05.188Z,94
2019-03-06T10:33:08.457Z,94
2019-03-06T10:34:10.689Z,94
2019-03-06T10:35:12.951Z,94
2019-03-06T10:36:15.482Z,94
2019-03-06T10:37:19.140Z,93
2019-03-06T10:38:21.409Z,94
2019-03-06T10:39:23.685Z,94
2019-03-06T10:40:26.382Z,94
2019-03-06T10:41:29.173Z,94
2019-03-06T10:42:31.438Z,94
2019-03-06T10:43:33.637Z,94
2019-03-06T10:44:36.156Z,94
2019-03-06T10:45:42.985Z,96
2019-03-06T10:46:45.281Z,95
2019-03-06T10:47:47.564Z,93
2019-03-06T10:48:50.192Z,94
2019-03-06T10:49:53.190Z,93
2019-03-06T10:50:55.460Z,92
2019-03-06T10:51:58.231Z,92
2019-03-06T10:53:00.816Z,92
2019-03-06T10:54:03.072Z,91
2019-03-06T10:55:05.320Z,91
2019-03-06T10:56:07.826Z,90
2019-03-06T10:57:12.576Z,90
2019-03-06T10:58:15.611Z,90
2019-03-06T10:59:18.242Z,90
2019-03-06T11:00:20.997Z,89
2019-03-06T11:01:23.835Z,89
2019-03-06T11:02:26.106Z,90
2019-03-06T11:03:28.667Z,90
2019-03-06T11:04:30.857Z,88
2019-03-06T11:05:33.055Z,87
2019-03-06T11:06:35.344Z,88
2019-03-06T11:07:37.594Z,88
2019-03-06T11:08:40.299Z,88
2019-03-06T11:09:43.068Z,88
2019-03-06T11:10:45.601Z,88
2019-03-06T11:11:48.208Z,89
2019-03-06T11:12:50.450Z,88
2019-03-06T11:13:52.674Z,88
2019-03-06T11:14:54.913Z,88
2019-03-06T11:15:57.123Z,88
2019-03-06T11:16:59.896Z,88
2019-03-06T11:18:03.239Z,88
2019-03-06T11:19:06.085Z,88
2019-03-06T11:20:08.257Z,89
2019-03-06T11:21:10.411Z,89
2019-03-06T11:22:12.562Z,88
2019-03-06T11:23:15.064Z,88
2019-03-06T11:24:17.218Z,88
2019-03-06T11:25:20.132Z,88
2019-03-06T11:26:23.094Z,88
2019-03-06T11:27:25.324Z,89
2019-03-06T11:28:27.535Z,88
2019-03-06T11:29:29.765Z,88
2019-03-06T11:30:32.222Z,89
2019-03-06T11:31:34.786Z,88
2019-03-06T11:32:36.989Z,88
2019-03-06T11:33:39.170Z,88
2019-03-06T11:34:41.355Z,88
2019-03-06T11:35:44.083Z,88
2019-03-06T11:36:46.685Z,88
2019-03-06T11:37:48.953Z,88
2019-03-06T11:38:51.153Z,87
2019-03-06T11:39:53.369Z,88
2019-03-06T11:40:55.530Z,87
2019-03-06T11:41:57.726Z,87
2019-03-06T11:42:59.900Z,87
2019-03-06T11:44:02.090Z,87
2019-03-06T11:45:04.283Z,87
2019-03-06T11:46:06.459Z,87
2019-03-06T11:47:09.082Z,87
2019-03-06T11:48:11.901Z,87
2019-03-06T11:49:14.383Z,86
2019-03-06T11:50:16.621Z,86
2019-03-06T11:51:19.088Z,86
2019-03-06T11:52:23.757Z,86
2019-03-06T11:53:26.342Z,86
2019-03-06T11:54:28.590Z,86
2019-03-06T11:55:30.801Z,86
2019-03-06T11:56:32.989Z,86
2019-03-06T11:57:35.518Z,85
2019-03-06T11:58:38.608Z,85
2019-03-06T11:59:41.298Z,85
2019-03-06T12:00:43.793Z,84
2019-03-06T12:01:49.529Z,84
2019-03-06T12:02:52.009Z,84
2019-03-06T12:03:54.216Z,84
2019-03-06T12:04:56.789Z,84
2019-03-06T12:05:59.005Z,84
2019-03-06T12:07:01.947Z,83
2019-03-06T12:08:04.129Z,83
2019-03-06T12:09:06.362Z,83
2019-03-06T12:10:09.073Z,84
2019-03-06T12:11:12.566Z,84
2019-03-06T12:12:14.801Z,83
2019-03-06T12:13:16.990Z,84
2019-03-06T12:14:19.174Z,83
2019-03-06T12:15:21.396Z,82
2019-03-06T12:16:23.559Z,82
2019-03-06T12:17:25.779Z,82
2019-03-06T12:18:28.007Z,83
2019-03-06T12:19:30.213Z,82
2019-03-06T12:20:33.350Z,82
2019-03-06T12:21:35.990Z,82
2019-03-06T12:22:38.192Z,82
2019-03-06T12:23:40.376Z,82
2019-03-06T12:24:42.579Z,83
2019-03-06T12:25:44.740Z,82
2019-03-06T12:26:46.946Z,82
2019-03-06T12:27:49.146Z,82
2019-03-06T12:28:51.316Z,82
2019-03-06T12:29:53.498Z,83
2019-03-06T12:30:55.698Z,82
2019-03-06T12:31:58.829Z,82
2019-03-06T12:33:01.619Z,83
2019-03-06T12:34:03.783Z,83
2019-03-06T12:35:05.925Z,83
2019-03-06T12:36:08.079Z,83
2019-03-06T12:37:10.258Z,82
2019-03-06T12:38:12.467Z,83
2019-03-06T12:39:14.681Z,83
2019-03-06T12:40:16.835Z,83
2019-03-06T12:41:19.012Z,83
2019-03-06T12:42:21.182Z,82
2019-03-06T12:43:24.021Z,83
2019-03-06T12:44:26.687Z,83
2019-03-06T12:45:29.452Z,83
2019-03-06T12:46:31.622Z,83
2019-03-06T12:47:33.777Z,83
2019-03-06T12:48:35.945Z,83
2019-03-06T12:49:38.395Z,84
2019-03-06T12:50:40.539Z,84
2019-03-06T12:51:42.999Z,84
2019-03-06T12:52:45.151Z,84
2019-03-06T12:53:47.298Z,84
2019-03-06T12:54:49.772Z,84
2019-03-06T12:55:52.313Z,84
2019-03-06T12:56:54.904Z,84
2019-03-06T12:58:00.503Z,84
2019-03-06T12:59:02.645Z,84
2019-03-06T13:00:05.095Z,84
2019-03-06T13:01:07.253Z,84
2019-03-06T13:02:09.435Z,84
2019-03-06T13:03:11.874Z,84
2019-03-06T13:04:14.438Z,84
2019-03-06T13:05:16.632Z,83
2019-03-06T13:06:26.331Z,84
2019-03-06T13:07:28.594Z,83
2019-03-06T13:08:31.230Z,84
2019-03-06T13:09:33.878Z,84
2019-03-06T13:10:36.208Z,83
2019-03-06T13:11:38.413Z,84
2019-03-06T13:12:40.571Z,84
2019-03-06T13:13:42.785Z,83
2019-03-06T13:14:45.012Z,83
2019-03-06T13:15:47.196Z,83
2019-03-06T13:16:49.405Z,83
2019-03-06T13:17:51.608Z,83
2019-03-06T13:18:53.822Z,83
2019-03-06T13:19:56.917Z,84
2019-03-06T13:20:59.756Z,83
2019-03-06T13:22:13.540Z,83
2019-03-06T13:23:16.399Z,83
2019-03-06T13:24:18.592Z,83
2019-03-06T13:25:20.774Z,83
2019-03-06T13:26:22.954Z,83
2019-03-06T13:27:25.125Z,83
2019-03-06T13:28:27.612Z,83
2019-03-06T13:29:29.813Z,83
2019-03-06T13:30:31.990Z,82
2019-03-06T13:31:36.634Z,82
2019-03-06T13:32:38.798Z,83
2019-03-06T13:33:41.494Z,83
2019-03-06T13:34:53.410Z,82
2019-03-06T13:35:56.251Z,82
2019-03-06T13:36:59.021Z,82
2019-03-06T13:38:01.528Z,83
2019-03-06T13:39:07.800Z,83
2019-03-06T13:40:19.667Z,83
2019-03-06T13:41:22.652Z,83
2019-03-06T13:42:26.808Z,83
2019-03-06T13:43:29.011Z,83
2019-03-06T13:44:31.212Z,83
2019-03-06T13:45:33.442Z,83
2019-03-06T13:46:35.619Z,83
2019-03-06T13:47:37.807Z,83
2019-03-06T13:48:40.042Z,83
2019-03-06T13:49:44.560Z,83
2019-03-06T13:50:47.405Z,83
2019-03-06T13:51:49.599Z,83
2019-03-06T13:52:51.848Z,83
2019-03-06T13:53:54.353Z,83
2019-03-06T13:54:58.658Z,83
2019-03-06T13:56:00.854Z,83
2019-03-06T13:57:03.064Z,83
2019-03-06T13:58:05.263Z,83
2019-03-06T13:59:08.042Z,83
2019-03-06T14:00:10.233Z,83
2019-03-06T14:01:13.027Z,83
2019-03-06T14:02:15.763Z,83
2019-03-06T14:03:17.963Z,83
2019-03-06T14:04:20.475Z,83
2019-03-06T14:05:22.651Z,83
2019-03-06T14:06:24.851Z,83
2019-03-06T14:07:27.331Z,83
2019-03-06T14:08:29.520Z,83
2019-03-06T14:09:32.259Z,83
2019-03-06T14:10:34.797Z,84
2019-03-06T14:11:37.179Z,84
2019-03-06T14:12:39.593Z,84
2019-03-06T14:13:42.380Z,84
2019-03-06T14:14:44.583Z,84
2019-03-06T14:15:55.145Z,84
2019-03-06T14:16:57.323Z,84
2019-03-06T14:17:59.512Z,83
2019-03-06T14:19:01.695Z,83
2019-03-06T14:20:03.907Z,83
2019-03-06T14:21:06.477Z,83
2019-03-06T14:22:08.640Z,83
2019-03-06T14:23:11.214Z,83
2019-03-06T14:24:13.413Z,83
2019-03-06T14:25:16.417Z,83
2019-03-06T14:26:19.817Z,83
2019-03-06T14:27:22.026Z,83
2019-03-06T14:28:24.210Z,83
2019-03-06T14:29:26.454Z,83
2019-03-06T14:30:28.672Z,83